Time;durP1;ratioP1;P1;durP2;ratioP2;P2;SDS_P1;SDS_P2;PMS_P1;PMS_P2;Temp;Humidity;BMP_temperature;BMP_pressure;BME280_temperature;BME280_humidity;BME280_pressure;Samples;Min_cycle;Max_cycle;Signal;HPM_P1;HPM_P2
2021/11/24 00:01:58;;;;;;;52.97;20.77;;;;;;;4.25;89.53;101642.78;8777824;33;20983;-73
2021/11/24 00:07:01;;;;;;;55.08;22.90;;;;;;;4.30;89.48;101644.38;8779120;33;20190;-74
2021/11/24 00:12:05;;;;;;;57.05;23.63;;;;;;;4.29;89.31;101639.13;8778837;33;20155;-74
2021/11/24 00:17:10;;;;;;;55.20;23.02;;;;;;;4.29;89.60;101626.69;8778152;33;20248;-74
2021/11/24 00:22:13;;;;;;;61.92;24.08;;;;;;;4.29;89.51;101623.16;8777631;33;20226;-73
2021/11/24 00:27:17;;;;;;;50.03;22.80;;;;;;;4.37;89.81;101613.97;8777177;33;20157;-73
2021/11/24 00:32:22;;;;;;;57.78;26.02;;;;;;;4.44;89.63;101614.59;8777537;33;20688;-73
2021/11/24 00:37:25;;;;;;;62.22;24.25;;;;;;;4.45;89.23;101616.38;8777389;33;20197;-73
2021/11/24 00:42:28;;;;;;;57.95;24.75;;;;;;;4.45;89.33;101616.38;8777666;33;20291;-73
2021/11/24 00:47:33;;;;;;;73.38;25.92;;;;;;;4.36;88.99;101616.69;8776870;33;20547;-73
2021/11/24 00:52:36;;;;;;;59.33;25.83;;;;;;;4.25;89.53;101603.78;8776609;33;20655;-74
2021/11/24 00:57:39;;;;;;;60.03;23.52;;;;;;;4.29;89.32;101601.88;8775965;33;20857;-73
2021/11/24 01:02:44;;;;;;;57.85;23.95;;;;;;;4.35;89.17;101605.16;8776299;33;20762;-73
2021/11/24 01:07:47;;;;;;;64.97;25.90;;;;;;;4.37;89.15;101605.13;8793685;33;20147;-73
2021/11/24 01:12:51;;;;;;;68.22;24.75;;;;;;;4.33;89.15;101598.16;8779611;33;20204;-74
2021/11/24 01:17:55;;;;;;;53.47;22.73;;;;;;;4.31;89.40;101608.03;8778012;33;20910;-73
2021/11/24 01:22:58;;;;;;;61.90;24.70;;;;;;;4.38;89.29;101606.84;8778032;33;20446;-73
2021/11/24 01:28:01;;;;;;;59.40;24.40;;;;;;;4.40;88.85;101605.03;8776379;33;20204;-73
2021/11/24 01:33:06;;;;;;;59.65;23.90;;;;;;;4.40;89.22;101602.34;8798455;33;20230;-73
2021/11/24 01:38:09;;;;;;;59.30;22.90;;;;;;;4.39;89.06;101600.63;8812027;33;20272;-73
2021/11/24 01:43:12;;;;;;;61.95;24.80;;;;;;;4.31;89.21;101595.56;8785508;33;20178;-73
2021/11/24 01:48:16;;;;;;;54.78;22.35;;;;;;;4.31;89.13;101582.28;8777168;33;20209;-73
2021/11/24 01:53:19;;;;;;;57.88;22.48;;;;;;;4.32;89.17;101580.47;8775279;33;20298;-74
2021/11/24 01:58:22;;;;;;;54.13;21.20;;;;;;;4.27;89.40;101580.63;8775372;33;20472;-73
2021/11/24 02:03:27;;;;;;;60.42;24.65;;;;;;;4.25;89.33;101569.19;8776130;33;20178;-73
2021/11/24 02:08:30;;;;;;;53.38;22.33;;;;;;;4.20;89.44;101570.25;8775052;33;20260;-73
2021/11/24 02:13:33;;;;;;;58.72;22.00;;;;;;;4.18;89.34;101573.84;8775028;33;20191;-74
2021/11/24 02:18:37;;;;;;;51.10;21.90;;;;;;;4.20;89.35;101563.19;8773519;33;20871;-73
2021/11/24 02:23:42;;;;;;;56.92;20.40;;;;;;;4.24;89.31;101559.47;8774938;33;20759;-74
2021/11/24 02:28:45;;;;;;;54.45;21.15;;;;;;;4.21;89.27;101556.06;8775158;33;20612;-73
2021/11/24 02:33:54;;;;;;;56.75;22.33;;;;;;;4.20;89.27;101546.31;8775091;33;20225;-73
2021/11/24 02:38:59;;;;;;;55.60;19.88;;;;;;;4.22;89.35;101544.47;8774075;33;20182;-74
2021/11/24 02:44:16;;;;;;;58.33;22.58;;;;;;;4.14;89.30;101544.75;8774535;33;20248;-74
2021/11/24 02:49:19;;;;;;;54.00;19.70;;;;;;;4.22;89.23;101548.00;8774033;33;20616;-73
2021/11/24 02:54:24;;;;;;;50.05;21.38;;;;;;;4.17;89.19;101531.38;8773674;33;20269;-75
2021/11/24 02:59:27;;;;;;;38.40;17.95;;;;;;;4.11;89.22;101532.47;8773712;33;20293;-73
2021/11/24 03:04:33;;;;;;;46.38;20.23;;;;;;;4.16;89.44;101530.47;8777832;33;20143;-73
2021/11/24 03:09:37;;;;;;;51.95;20.70;;;;;;;4.14;89.38;101515.50;8778961;33;20182;-74
2021/11/24 03:14:41;;;;;;;51.10;20.77;;;;;;;4.09;89.15;101518.34;8777663;33;20606;-73
2021/11/24 03:19:46;;;;;;;49.15;22.13;;;;;;;4.14;89.53;101510.19;8780801;33;20702;-72
2021/11/24 03:24:55;;;;;;;51.15;20.40;;;;;;;4.02;89.61;101503.53;8778582;33;20136;-73
2021/11/24 03:30:01;;;;;;;50.47;20.98;;;;;;;4.08;89.62;101492.66;8778262;33;20150;-72
2021/11/24 03:35:06;;;;;;;42.20;17.80;;;;;;;4.13;89.47;101489.84;8778350;33;20423;-73
2021/11/24 03:40:14;;;;;;;40.20;18.20;;;;;;;4.10;89.69;101489.97;8776743;33;20649;-73
2021/11/24 03:45:22;;;;;;;44.63;19.95;;;;;;;4.00;90.09;101480.56;8778153;33;20271;-73
2021/11/24 03:50:26;;;;;;;46.60;19.00;;;;;;;4.16;89.54;101476.41;8777654;33;20178;-73
2021/11/24 03:55:30;;;;;;;44.85;19.27;;;;;;;4.24;89.17;101477.00;8778304;33;20190;-73
2021/11/24 04:00:35;;;;;;;46.60;19.40;;;;;;;4.15;89.66;101472.91;8778618;33;20236;-72
2021/11/24 04:05:38;;;;;;;45.58;18.67;;;;;;;4.12;89.33;101465.03;8778192;33;20496;-73
2021/11/24 04:10:42;;;;;;;43.17;18.48;;;;;;;4.20;89.37;101464.75;8779154;33;20299;-73
2021/11/24 04:15:46;;;;;;;54.20;19.75;;;;;;;4.14;89.60;101463.19;8776906;33;20187;-73
2021/11/24 04:20:49;;;;;;;44.38;19.65;;;;;;;4.18;89.67;101459.50;8746218;33;20178;-73
2021/11/24 04:25:53;;;;;;;40.90;19.35;;;;;;;4.25;89.38;101454.81;8777601;33;20190;-73
2021/11/24 04:30:56;;;;;;;55.97;21.23;;;;;;;4.32;89.31;101442.16;8777504;33;20225;-74
2021/11/24 04:36:00;;;;;;;50.83;21.98;;;;;;;4.33;89.14;101450.09;8777870;33;20181;-73
2021/11/24 04:41:04;;;;;;;55.78;22.77;;;;;;;4.32;89.37;101445.66;8778170;33;20855;-73
2021/11/24 04:46:08;;;;;;;57.28;23.95;;;;;;;4.31;89.21;101437.75;8778229;33;20139;-73
2021/11/24 04:51:11;;;;;;;49.95;21.83;;;;;;;4.35;89.29;101434.91;8777017;33;20676;-73
2021/11/24 04:56:16;;;;;;;52.85;22.17;;;;;;;4.38;89.21;101434.78;8777449;33;20144;-73
2021/11/24 05:01:20;;;;;;;53.53;22.30;;;;;;;4.39;89.27;101433.00;8777344;33;20179;-73
2021/11/24 05:06:23;;;;;;;47.55;22.88;;;;;;;4.38;89.47;101423.28;8775461;33;20143;-73
2021/11/24 05:11:28;;;;;;;51.75;22.75;;;;;;;4.42;89.31;101429.38;8776286;33;20206;-73
2021/11/24 05:16:33;;;;;;;48.85;21.92;;;;;;;4.45;89.19;101432.78;8777841;33;20190;-73
2021/11/24 05:21:37;;;;;;;56.05;23.10;;;;;;;4.48;89.27;101430.00;8775487;33;20844;-73
2021/11/24 05:26:42;;;;;;;51.15;22.23;;;;;;;4.50;89.32;101436.13;8775722;33;20166;-73
2021/11/24 05:31:45;;;;;;;59.80;23.80;;;;;;;4.49;89.12;101434.38;8776151;33;20278;-73
2021/11/24 05:36:48;;;;;;;53.20;23.40;;;;;;;4.43;89.43;101423.97;8776471;33;20534;-73
2021/11/24 05:41:53;;;;;;;51.85;22.80;;;;;;;4.48;89.37;101424.66;8776091;33;20147;-72
2021/11/24 05:47:01;;;;;;;54.05;23.13;;;;;;;4.39;89.46;101427.69;8775303;33;20591;-74
2021/11/24 05:52:06;;;;;;;48.55;22.65;;;;;;;4.46;89.29;101423.00;8775838;33;20627;-74
2021/11/24 05:57:11;;;;;;;52.85;22.17;;;;;;;4.46;89.22;101423.00;8775017;33;20655;-74
2021/11/24 06:02:14;;;;;;;49.53;23.20;;;;;;;4.49;89.30;101405.09;8777101;33;21025;-74
2021/11/24 06:07:17;;;;;;;52.13;22.38;;;;;;;4.57;89.63;101396.81;8750210;33;20416;-74
2021/11/24 06:12:21;;;;;;;49.58;21.98;;;;;;;4.55;89.21;101391.56;8774523;33;20483;-75
2021/11/24 06:17:25;;;;;;;51.28;22.30;;;;;;;4.59;89.48;101394.97;8774043;33;20165;-74
2021/11/24 06:22:28;;;;;;;48.95;21.77;;;;;;;4.62;89.40;101398.38;8774185;33;20232;-74
2021/11/24 06:27:32;;;;;;;45.50;21.20;;;;;;;4.56;89.04;101392.44;8774066;33;20181;-74
2021/11/24 06:32:35;;;;;;;41.65;19.05;;;;;;;4.54;89.19;101392.47;8773829;33;20536;-73
2021/11/24 06:37:39;;;;;;;39.42;18.92;;;;;;;4.56;88.99;101393.31;8775660;33;20216;-74
2021/11/24 06:42:44;;;;;;;43.17;19.85;;;;;;;4.56;89.05;101387.13;8780387;33;20201;-75
2021/11/24 06:47:47;;;;;;;38.00;18.70;;;;;;;4.59;89.26;101386.97;8777739;33;20175;-73
2021/11/24 06:52:51;;;;;;;43.40;19.15;;;;;;;4.60;89.34;101384.25;8779640;33;20530;-74
2021/11/24 06:57:55;;;;;;;46.42;20.95;;;;;;;4.66;89.44;101385.78;8778499;33;20224;-74
2021/11/24 07:02:58;;;;;;;40.20;20.17;;;;;;;4.72;89.46;101382.03;8779215;33;20240;-74
2021/11/24 07:08:01;;;;;;;39.28;20.50;;;;;;;4.75;89.49;101388.09;8780234;33;20442;-74
2021/11/24 07:13:06;;;;;;;45.40;20.33;;;;;;;4.67;88.96;101387.53;8778992;33;20135;-74
2021/11/24 07:18:09;;;;;;;49.13;20.67;;;;;;;4.61;88.90;101401.97;8786896;33;21232;-73
2021/11/24 07:23:12;;;;;;;37.35;18.60;;;;;;;4.68;89.23;101381.28;8825455;33;20187;-73
2021/11/24 07:28:16;;;;;;;35.70;17.10;;;;;;;4.60;89.04;101383.38;8804375;33;20857;-73
2021/11/24 07:33:20;;;;;;;44.15;20.33;;;;;;;4.68;89.04;101383.09;8714348;33;20153;-73
2021/11/24 07:38:23;;;;;;;41.65;19.85;;;;;;;4.74;89.37;101381.03;8718595;33;20187;-74
2021/11/24 07:43:28;;;;;;;19.92;9.70;;;;;;;4.80;89.12;101378.13;8720656;33;20163;-73
2021/11/24 07:48:31;;;;;;;55.03;23.55;;;;;;;4.97;89.47;101376.56;8718601;33;20238;-74
2021/11/24 07:53:34;;;;;;;46.80;20.73;;;;;;;4.98;89.00;101376.50;8720087;33;20199;-72
2021/11/24 07:58:40;;;;;;;37.78;17.95;;;;;;;4.93;88.83;101372.28;8718043;33;20195;-73
2021/11/24 08:03:44;;;;;;;57.92;23.65;;;;;;;5.12;89.34;101375.06;8718382;33;20626;-72
2021/11/24 08:08:47;;;;;;;46.08;21.27;;;;;;;5.35;89.56;101366.97;8719703;33;20657;-72
2021/11/24 08:13:52;;;;;;;47.33;20.70;;;;;;;5.25;88.44;101365.63;8718589;33;20235;-73
2021/11/24 08:18:55;;;;;;;43.95;19.42;;;;;;;5.20;89.11;101357.84;8718189;33;20214;-73
2021/11/24 08:23:58;;;;;;;43.88;20.50;;;;;;;5.32;88.99;101360.88;8716541;33;20549;-73
2021/11/24 08:29:04;;;;;;;44.92;21.08;;;;;;;5.37;89.48;101350.91;8717730;33;20179;-73
2021/11/24 08:34:08;;;;;;;40.65;18.92;;;;;;;5.44;89.26;101337.25;8716253;33;20183;-72
2021/11/24 08:39:11;;;;;;;43.75;20.40;;;;;;;5.50;89.39;101331.63;8718458;33;20849;-72
2021/11/24 08:44:20;;;;;;;40.78;19.33;;;;;;;5.54;88.84;101343.03;8718354;33;20180;-72
2021/11/24 08:49:23;;;;;;;39.00;19.48;;;;;;;5.46;88.53;101337.19;8718035;33;20184;-73
2021/11/24 08:54:27;;;;;;;35.92;17.58;;;;;;;5.36;88.49;101339.38;8717853;33;20188;-73
2021/11/24 08:59:31;;;;;;;40.67;19.52;;;;;;;5.40;88.36;101335.66;8715069;33;20633;-73
2021/11/24 09:04:34;;;;;;;38.92;18.13;;;;;;;5.47;88.37;101333.59;8717694;33;20557;-73
2021/11/24 09:09:39;;;;;;;37.47;17.30;;;;;;;5.47;88.00;101334.44;8717182;33;20230;-73
2021/11/24 09:14:43;;;;;;;43.50;21.25;;;;;;;5.57;87.79;101329.56;8715528;33;21174;-73
2021/11/24 09:19:46;;;;;;;43.60;18.63;;;;;;;5.68;87.48;101319.28;8716501;33;20167;-73
2021/11/24 09:25:11;;;;;;;35.28;17.80;;;;;;;5.85;87.88;101322.97;8717206;33;20209;-73
2021/11/24 09:30:17;;;;;;;40.15;17.33;;;;;;;5.82;86.86;101320.47;8717819;33;20140;-73
2021/11/24 09:35:21;;;;;;;35.75;16.60;;;;;;;5.67;86.81;101312.22;8716539;33;20971;-73
2021/11/24 09:40:24;;;;;;;33.35;15.57;;;;;;;5.64;86.36;101315.00;8716138;33;20864;-73
2021/11/24 09:45:30;;;;;;;33.38;16.27;;;;;;;5.71;86.17;101312.94;8717040;33;20284;-73
2021/11/24 09:50:37;;;;;;;35.25;16.50;;;;;;;5.66;86.09;101299.81;8715996;33;20260;-73
2021/11/24 09:55:40;;;;;;;30.80;15.82;;;;;;;5.67;85.88;101296.22;8715859;33;22002;-73
2021/11/24 10:00:46;;;;;;;37.00;16.85;;;;;;;5.80;86.53;101283.19;8715548;33;20236;-72
2021/11/24 10:05:49;;;;;;;33.38;16.52;;;;;;;5.85;86.32;101286.50;8716393;33;21692;-72
2021/11/24 10:11:13;;;;;;;32.95;16.17;;;;;;;5.88;86.81;101270.34;8714806;33;20633;-73
2021/11/24 10:16:25;;;;;;;31.02;16.17;;;;;;;5.92;85.91;101268.41;8715331;33;20253;-73
2021/11/24 10:21:32;;;;;;;29.17;13.57;;;;;;;5.89;85.56;101250.75;8715920;33;20213;-73
2021/11/24 10:26:38;;;;;;;31.73;14.55;;;;;;;5.99;85.33;101253.00;8715608;33;20196;-73
2021/11/24 10:32:06;;;;;;;30.38;14.60;;;;;;;6.03;84.81;101239.41;8714914;33;20679;-73
2021/11/24 10:37:12;;;;;;;29.88;14.95;;;;;;;5.95;84.26;101230.91;8715100;33;20286;-73
2021/11/24 10:42:21;;;;;;;32.15;14.23;;;;;;;5.79;82.82;101227.25;8690358;33;20144;-73
2021/11/24 10:47:27;;;;;;;33.47;15.07;;;;;;;6.01;84.13;101217.31;8715197;33;20179;-72
2021/11/24 10:52:33;;;;;;;28.60;14.23;;;;;;;6.03;83.01;101204.72;8715006;33;20144;-73
2021/11/24 10:57:40;;;;;;;25.95;12.68;;;;;;;6.06;83.36;101199.28;8714994;33;22119;-73
2021/11/24 11:02:46;;;;;;;27.15;12.98;;;;;;;5.99;82.24;101192.50;8714985;33;20175;-73
2021/11/24 11:08:01;;;;;;;25.55;13.30;;;;;;;6.11;83.85;101194.56;8714842;33;20183;-72
2021/11/24 11:13:11;;;;;;;30.45;14.48;;;;;;;6.34;84.94;101192.56;8714498;33;20223;-73
2021/11/24 11:18:19;;;;;;;30.25;14.75;;;;;;;6.38;83.73;101170.97;8714960;33;20187;-73
2021/11/24 11:23:27;;;;;;;30.25;14.90;;;;;;;6.49;83.89;101162.41;8717429;33;20444;-73
2021/11/24 11:28:34;;;;;;;30.45;14.45;;;;;;;6.63;84.22;101146.53;8719475;33;20643;-73
2021/11/24 11:33:42;;;;;;;32.03;14.70;;;;;;;6.72;84.26;101145.19;8719790;33;20183;-73
2021/11/24 11:38:48;;;;;;;27.83;14.20;;;;;;;6.67;82.09;101138.38;8719637;33;20183;-73
2021/11/24 11:43:54;;;;;;;28.70;13.63;;;;;;;6.58;81.21;101137.03;8719023;33;20234;-73
2021/11/24 11:49:22;;;;;;;29.52;11.88;;;;;;;6.58;82.68;101123.69;8719546;33;20198;-74
2021/11/24 11:54:29;;;;;;;21.33;11.75;;;;;;;6.67;83.56;101123.22;8719326;33;20203;-73
2021/11/24 11:59:35;;;;;;;27.23;11.48;;;;;;;6.78;84.71;101107.47;8718623;33;20178;-73
2021/11/24 12:04:46;;;;;;;22.55;11.20;;;;;;;6.77;84.57;101089.72;8694297;33;20519;-73
2021/11/24 12:09:53;;;;;;;18.27;9.70;;;;;;;6.66;82.53;101092.09;8718953;33;20243;-73
2021/11/24 12:15:09;;;;;;;13.48;7.45;;;;;;;6.63;81.50;101081.59;8718766;33;20183;-73
2021/11/24 12:20:45;;;;;;;8.20;4.57;;;;;;;6.20;73.86;101070.53;8717773;33;20140;-73
2021/11/24 12:26:21;;;;;;;11.90;6.40;;;;;;;6.13;74.27;101055.78;8718568;33;20151;-73
2021/11/24 12:31:29;;;;;;;16.65;8.38;;;;;;;6.36;78.75;101044.78;8717937;33;20414;-73
2021/11/24 12:36:36;;;;;;;12.98;6.75;;;;;;;6.33;77.14;101038.72;8718459;33;21575;-73
2021/11/24 12:41:42;;;;;;;4.35;2.70;;;;;;;6.22;77.10;101027.75;8717682;33;20201;-73
2021/11/24 12:46:47;;;;;;;6.57;3.17;;;;;;;6.08;72.44;101026.66;8717044;33;20187;-73
2021/11/24 12:51:54;;;;;;;5.50;3.80;;;;;;;6.06;73.21;101012.56;8717405;33;20500;-73
2021/11/24 12:57:00;;;;;;;4.75;2.80;;;;;;;6.15;75.20;101006.72;8743880;33;21052;-73
2021/11/24 13:02:07;;;;;;;3.60;2.60;;;;;;;6.25;74.57;101001.75;8749148;33;20232;-73
2021/11/24 13:07:19;;;;;;;3.67;2.05;;;;;;;6.27;76.61;100994.53;8718737;33;20191;-73
2021/11/24 13:12:25;;;;;;;1.83;1.50;;;;;;;6.21;71.32;100978.00;8717662;33;20279;-73
2021/11/24 13:17:31;;;;;;;1.75;1.65;;;;;;;6.23;74.38;100968.13;8716021;33;20466;-72
2021/11/24 13:22:39;;;;;;;2.72;1.83;;;;;;;6.21;71.83;100968.19;8716145;33;20672;-73
2021/11/24 13:27:48;;;;;;;3.55;2.10;;;;;;;6.19;74.47;100951.41;8717001;33;20214;-73
2021/11/24 13:32:58;;;;;;;3.80;2.28;;;;;;;6.20;71.81;100950.47;8716875;33;20140;-73
2021/11/24 13:38:03;;;;;;;4.38;2.88;;;;;;;6.18;73.69;100944.34;8716285;33;20240;-73
2021/11/24 13:43:07;;;;;;;3.63;2.38;;;;;;;6.17;75.36;100945.28;8716486;33;22101;-73
2021/11/24 13:48:13;;;;;;;5.78;2.85;;;;;;;6.09;71.70;100942.19;8715872;33;20656;-74
2021/11/24 13:53:23;;;;;;;4.50;2.35;;;;;;;6.10;74.26;100935.91;8715927;33;20451;-74
2021/11/24 13:58:26;;;;;;;3.25;2.10;;;;;;;6.13;75.80;100933.06;8715243;33;20140;-74
2021/11/24 14:03:29;;;;;;;3.40;2.22;;;;;;;6.03;71.16;100924.69;8717425;33;20217;-72
2021/11/24 14:08:39;;;;;;;3.05;2.22;;;;;;;5.95;69.37;100917.09;8717801;33;20184;-72
2021/11/24 14:13:43;;;;;;;5.25;2.78;;;;;;;5.98;73.62;100912.53;8716096;33;22167;-72
2021/11/24 14:18:46;;;;;;;4.93;2.97;;;;;;;5.99;74.73;100916.94;8715365;33;20802;-72
2021/11/24 14:23:50;;;;;;;5.80;3.60;;;;;;;6.02;77.82;100911.44;8715265;33;20179;-73
2021/11/24 14:28:53;;;;;;;6.32;3.28;;;;;;;5.98;76.48;100901.88;8709140;33;20961;-73
2021/11/24 14:34:08;;;;;;;5.00;2.92;;;;;;;5.98;77.93;100894.75;8712185;33;21491;-73
2021/11/24 14:39:14;;;;;;;4.25;3.15;;;;;;;5.94;75.93;100899.38;8713292;33;20180;-73
2021/11/24 14:44:21;;;;;;;5.60;2.55;;;;;;;5.97;78.44;100881.50;8713424;33;20184;-73
2021/11/24 14:49:25;;;;;;;4.70;2.83;;;;;;;5.94;79.61;100870.03;8712777;33;20225;-75
2021/11/24 14:54:29;;;;;;;5.57;3.92;;;;;;;5.92;80.81;100863.06;8705276;33;20202;-74
2021/11/24 14:59:32;;;;;;;6.00;3.53;;;;;;;5.83;76.41;100858.22;8714182;33;20453;-74
2021/11/24 15:04:36;;;;;;;6.70;3.85;;;;;;;5.75;75.10;100850.63;8738740;33;20172;-74
2021/11/24 15:09:41;;;;;;;7.60;4.70;;;;;;;5.70;72.19;100840.25;8746269;33;20183;-73
2021/11/24 15:14:44;;;;;;;6.13;4.35;;;;;;;5.68;72.11;100843.94;8758744;33;20303;-74
2021/11/24 15:19:47;;;;;;;8.90;4.70;;;;;;;5.69;75.23;100832.31;8778830;33;20240;-75
2021/11/24 15:24:51;;;;;;;7.95;4.75;;;;;;;5.65;75.51;100828.97;8778750;33;20459;-74
2021/11/24 15:29:55;;;;;;;10.38;6.38;;;;;;;5.69;78.83;100821.66;8777508;33;20148;-74
2021/11/24 15:34:58;;;;;;;7.65;5.18;;;;;;;5.65;75.86;100817.41;8778170;33;20491;-74
2021/11/24 15:40:03;;;;;;;8.70;5.32;;;;;;;5.64;78.14;100813.03;8777652;33;21587;-74
2021/11/24 15:45:08;;;;;;;9.32;5.05;;;;;;;5.62;75.03;100814.91;8778253;33;20179;-74
2021/11/24 15:50:12;;;;;;;9.40;5.65;;;;;;;5.52;71.34;100798.56;8777595;33;20587;-74
2021/11/24 15:55:16;;;;;;;7.80;5.05;;;;;;;5.50;72.54;100787.97;8778059;33;20171;-74
2021/11/24 16:00:27;;;;;;;7.65;4.80;;;;;;;5.52;74.23;100781.72;8777982;33;20190;-75
2021/11/24 16:05:30;;;;;;;12.57;5.07;;;;;;;5.48;75.61;100778.34;8777887;33;20187;-74
2021/11/24 16:10:34;;;;;;;7.65;5.32;;;;;;;5.47;77.55;100774.81;8722656;33;20671;-75
2021/11/24 16:15:38;;;;;;;8.98;5.45;;;;;;;5.48;78.73;100770.34;8689282;33;20293;-75
2021/11/24 16:20:41;;;;;;;8.65;5.00;;;;;;;5.51;77.92;100759.53;8715845;33;20504;-74
2021/11/24 16:25:45;;;;;;;10.68;5.95;;;;;;;5.56;78.00;100759.28;8717852;33;20458;-75
2021/11/24 16:30:49;;;;;;;12.88;5.90;;;;;;;5.58;78.67;100757.41;8715799;33;20644;-75
2021/11/24 16:35:52;;;;;;;9.45;6.05;;;;;;;5.60;79.69;100747.53;8715175;33;20278;-74
2021/11/24 16:40:56;;;;;;;15.02;9.57;;;;;;;5.57;78.21;100750.34;8718816;33;20202;-75
2021/11/24 16:45:59;;;;;;;21.48;11.15;;;;;;;5.47;78.62;100750.00;8716264;33;20131;-75
2021/11/24 16:51:04;;;;;;;16.05;12.57;;;;;;;5.44;79.95;100748.34;8716425;33;20176;-75
2021/11/24 16:56:09;;;;;;;18.02;10.55;;;;;;;5.43;79.81;100746.63;8718390;33;20742;-74
2021/11/24 17:01:12;;;;;;;14.68;9.10;;;;;;;5.43;79.54;100740.41;8718736;33;20140;-73
2021/11/24 17:06:16;;;;;;;15.32;9.57;;;;;;;5.41;78.96;100734.34;8716456;33;20186;-74
2021/11/24 17:11:20;;;;;;;13.13;8.07;;;;;;;5.42;79.86;100733.38;8720453;33;20206;-74
2021/11/24 17:16:24;;;;;;;16.83;11.13;;;;;;;5.36;79.22;100718.59;8720347;33;20164;-74
2021/11/24 17:21:27;;;;;;;12.38;7.70;;;;;;;5.38;78.90;100710.53;8719905;33;21590;-73
2021/11/24 17:26:32;;;;;;;13.52;7.20;;;;;;;5.38;78.37;100695.41;8719182;33;21364;-74
2021/11/24 17:31:35;;;;;;;10.68;7.72;;;;;;;5.37;79.56;100684.81;8720198;33;20184;-74
2021/11/24 17:36:38;;;;;;;12.10;8.50;;;;;;;5.37;79.78;100680.34;8721136;33;20656;-74
2021/11/24 17:41:42;;;;;;;15.35;8.65;;;;;;;5.35;79.55;100679.59;8720552;33;20245;-74
2021/11/24 17:46:45;;;;;;;29.48;16.75;;;;;;;5.33;79.58;100673.47;8717716;33;20136;-72
2021/11/24 17:51:48;;;;;;;23.63;15.13;;;;;;;5.29;79.82;100666.56;8715462;33;20274;-74
2021/11/24 17:56:53;;;;;;;14.75;9.32;;;;;;;5.26;79.41;100664.94;8717390;33;20641;-75
2021/11/24 18:01:56;;;;;;;16.55;9.93;;;;;;;5.26;78.93;100674.75;8717754;33;20217;-74
2021/11/24 18:07:00;;;;;;;20.02;11.48;;;;;;;5.23;79.43;100664.25;8720333;33;21748;-74
2021/11/24 18:12:06;;;;;;;13.48;7.95;;;;;;;5.19;78.07;100652.91;8718036;33;20179;-74
2021/11/24 18:17:09;;;;;;;9.13;5.95;;;;;;;5.22;76.25;100650.09;8717865;33;20249;-74
2021/11/24 18:22:13;;;;;;;8.75;5.72;;;;;;;5.24;77.70;100632.22;8718073;33;20190;-74
2021/11/24 18:27:18;;;;;;;10.18;6.20;;;;;;;5.24;76.94;100634.88;8717925;33;20197;-74
2021/11/24 18:32:21;;;;;;;9.30;6.05;;;;;;;5.23;75.96;100625.16;8736044;33;20316;-72
2021/11/24 18:37:24;;;;;;;15.82;9.38;;;;;;;5.28;77.94;100623.09;8717496;33;20222;-74
2021/11/24 18:42:29;;;;;;;19.10;8.82;;;;;;;5.22;73.80;100620.78;8701240;33;20257;-74
2021/11/24 18:47:32;;;;;;;9.82;5.63;;;;;;;5.21;76.36;100620.84;8728257;33;20600;-74
2021/11/24 18:52:37;;;;;;;11.05;7.43;;;;;;;5.26;79.06;100613.47;8721331;33;20186;-74
2021/11/24 18:57:41;;;;;;;10.10;7.57;;;;;;;5.24;78.64;100602.94;8721587;33;20505;-74
2021/11/24 19:02:46;;;;;;;14.45;7.28;;;;;;;5.28;78.89;100591.13;8720679;33;20176;-73
2021/11/24 19:07:50;;;;;;;9.05;6.47;;;;;;;5.24;76.34;100586.09;8720881;33;20752;-73
2021/11/24 19:12:54;;;;;;;10.50;6.95;;;;;;;5.10;70.00;100592.19;8721792;33;20171;-74
2021/11/24 19:17:57;;;;;;;12.52;7.50;;;;;;;5.17;75.73;100582.88;8720732;33;20194;-74
2021/11/24 19:23:01;;;;;;;17.77;10.07;;;;;;;5.12;75.26;100576.94;8724509;33;20216;-74
2021/11/24 19:28:06;;;;;;;14.05;7.57;;;;;;;5.09;75.61;100562.97;8722021;33;20798;-74
2021/11/24 19:33:11;;;;;;;12.35;6.85;;;;;;;4.94;72.16;100565.50;8722896;33;20371;-74
2021/11/24 19:38:14;;;;;;;9.82;6.47;;;;;;;4.98;72.80;100552.88;8720897;33;20202;-74
2021/11/24 19:43:18;;;;;;;10.95;7.15;;;;;;;5.00;75.41;100549.22;8696507;33;20274;-73
2021/11/24 19:48:22;;;;;;;10.75;6.68;;;;;;;4.98;75.37;100552.88;8720883;33;20180;-74
2021/11/24 19:53:25;;;;;;;10.32;6.85;;;;;;;4.99;76.33;100554.59;8720348;33;20370;-73
2021/11/24 19:58:30;;;;;;;13.20;7.95;;;;;;;4.97;76.64;100551.16;8721496;33;20250;-74
2021/11/24 20:03:33;;;;;;;10.30;7.80;;;;;;;4.97;75.62;100545.84;8721592;33;20178;-73
2021/11/24 20:08:36;;;;;;;12.73;7.43;;;;;;;4.97;78.31;100533.38;8721153;33;20649;-73
2021/11/24 20:13:42;;;;;;;10.70;6.22;;;;;;;4.86;73.97;100535.78;8721517;33;20878;-73
2021/11/24 20:18:46;;;;;;;11.20;6.07;;;;;;;4.82;76.26;100531.53;8697448;33;20156;-73
2021/11/24 20:23:49;;;;;;;10.05;6.22;;;;;;;4.89;79.04;100527.63;8722495;33;20645;-74
2021/11/24 20:28:55;;;;;;;10.90;6.97;;;;;;;4.97;80.45;100516.53;8721735;33;20195;-74
2021/11/24 20:33:58;;;;;;;9.60;6.70;;;;;;;4.97;81.22;100516.53;8721532;33;20274;-73
2021/11/24 20:39:01;;;;;;;9.82;6.53;;;;;;;4.92;80.81;100507.94;8720832;33;20247;-74
2021/11/24 20:44:06;;;;;;;10.27;7.25;;;;;;;4.93;81.21;100497.19;8719052;33;20178;-73
2021/11/24 20:49:09;;;;;;;11.95;6.85;;;;;;;4.96;79.76;100485.53;8714646;33;20570;-74
2021/11/24 20:54:13;;;;;;;12.73;6.68;;;;;;;4.90;79.15;100481.41;8715524;33;20243;-74
2021/11/24 20:59:18;;;;;;;10.55;6.55;;;;;;;4.90;79.68;100472.56;8716355;33;20237;-74
2021/11/24 21:04:21;;;;;;;8.57;6.35;;;;;;;4.87;77.46;100473.59;8716088;33;20684;-73
2021/11/24 21:09:24;;;;;;;9.23;6.32;;;;;;;4.87;73.36;100460.28;8719837;33;20441;-74
2021/11/24 21:14:29;;;;;;;10.73;6.70;;;;;;;4.88;74.52;100461.13;8718374;33;20187;-74
2021/11/24 21:19:32;;;;;;;9.85;6.75;;;;;;;4.86;72.68;100453.25;8717253;33;20187;-74
2021/11/24 21:24:35;;;;;;;9.68;7.18;;;;;;;4.83;70.03;100440.97;8705571;33;20134;-73
2021/11/24 21:29:40;;;;;;;12.90;7.68;;;;;;;4.78;67.96;100445.69;8719209;33;20299;-73
2021/11/24 21:34:44;;;;;;;10.65;7.00;;;;;;;4.75;67.88;100442.34;8719776;33;20183;-73
2021/11/24 21:39:47;;;;;;;13.52;7.38;;;;;;;4.83;73.54;100432.13;8719174;33;20228;-74
2021/11/24 21:44:52;;;;;;;11.70;8.48;;;;;;;4.84;73.48;100428.53;8718593;33;20184;-73
2021/11/24 21:49:59;;;;;;;11.32;7.13;;;;;;;4.91;77.22;100421.91;8717065;33;20151;-73
2021/11/24 21:55:03;;;;;;;13.55;7.97;;;;;;;4.90;76.59;100425.50;8719088;33;20172;-73
2021/11/24 22:00:12;;;;;;;14.82;8.43;;;;;;;4.92;78.71;100420.97;8720779;33;20217;-72
2021/11/24 22:05:15;;;;;;;16.95;9.05;;;;;;;4.95;79.49;100412.78;8717362;33;20520;-74
2021/11/24 22:15:46;;;;;;;14.55;10.35;;;;;;;4.90;78.88;100390.91;8715010;33;20195;-73
2021/11/24 22:20:51;;;;;;;11.73;8.18;;;;;;;4.84;79.23;100397.44;8713150;33;21050;-73
2021/11/24 22:25:55;;;;;;;13.73;9.95;;;;;;;4.78;79.43;100392.47;8719969;33;20156;-73
2021/11/24 22:30:59;;;;;;;15.05;9.88;;;;;;;4.77;79.78;100387.22;8716151;33;20180;-73
2021/11/24 22:36:04;;;;;;;13.43;8.30;;;;;;;4.78;79.03;100383.63;8719512;33;20183;-73
2021/11/24 22:41:08;;;;;;;11.50;8.35;;;;;;;4.71;78.35;100374.25;8717799;33;20188;-73
2021/11/24 22:46:13;;;;;;;11.70;7.97;;;;;;;4.69;78.92;100371.72;8716365;33;20187;-73
2021/11/24 22:51:17;;;;;;;14.02;8.77;;;;;;;4.62;77.54;100367.66;8717476;33;20176;-73
2021/11/24 22:56:20;;;;;;;13.60;8.40;;;;;;;4.64;76.93;100348.97;8717989;33;20183;-74
2021/11/24 23:01:24;;;;;;;12.38;8.65;;;;;;;4.66;77.68;100361.22;8716815;33;20334;-73
2021/11/24 23:06:27;;;;;;;12.10;8.88;;;;;;;4.64;76.54;100348.97;8715815;33;20156;-73
2021/11/24 23:11:31;;;;;;;9.93;7.78;;;;;;;4.46;72.11;100357.03;8715210;33;20230;-72
2021/11/24 23:16:35;;;;;;;13.25;8.68;;;;;;;4.37;74.34;100355.75;8715754;33;20184;-73
2021/11/24 23:21:38;;;;;;;11.02;8.30;;;;;;;4.39;76.64;100351.19;8719294;33;20747;-73
2021/11/24 23:26:42;;;;;;;11.13;7.65;;;;;;;4.38;75.78;100344.16;8723476;33;20183;-73
2021/11/24 23:31:47;;;;;;;13.75;7.45;;;;;;;4.35;73.34;100340.81;8720554;33;20992;-72
2021/11/24 23:36:50;;;;;;;16.23;8.50;;;;;;;4.37;73.64;100338.94;8720634;33;20677;-73